Terminal Aerodrome Forecast
Issued by NWS

Home | Current Version | Previous Version | Text Only | Print | Product List | Glossary On
Versions: 1 2 3 4 5 6 7 8 9 10 11 12
000
FTUS45 KABQ 281728
TAFSAF
TAF
KSAF 281728Z 2818/2918 02008KT P6SM SCT250
     FM282100 13008KT P6SM VCTS SCT070CB
     FM290000 13012KT P6SM BKN070
     FM290800 02009KT P6SM FEW070 SCT250=

USA.gov is the U.S. government's official web portal to all federal, state and local government web resources and services.